sensor_id;sensor_type;location;lat;lon;timestamp;P1;durP1;ratioP1;P2;durP2;ratioP2
60430;SDS011;46285;45.122;20.726;2023-03-03T00:03:51;28.63;;;19.15;;
60430;SDS011;46285;45.122;20.726;2023-03-03T00:13:53;32.38;;;20.00;;
60430;SDS011;46285;45.122;20.726;2023-03-03T00:24:02;33.28;;;20.42;;
60430;SDS011;46285;45.122;20.726;2023-03-03T00:54:21;56.42;;;38.40;;
60430;SDS011;46285;45.122;20.726;2023-03-03T01:04:22;40.60;;;23.90;;
60430;SDS011;46285;45.122;20.726;2023-03-03T01:14:24;37.67;;;24.20;;
60430;SDS011;46285;45.122;20.726;2023-03-03T01:24:25;34.95;;;23.25;;
60430;SDS011;46285;45.122;20.726;2023-03-03T01:34:26;34.28;;;22.30;;
60430;SDS011;46285;45.122;20.726;2023-03-03T01:44:27;35.83;;;24.20;;
60430;SDS011;46285;45.122;20.726;2023-03-03T01:54:30;44.20;;;28.13;;
60430;SDS011;46285;45.122;20.726;2023-03-03T02:04:35;40.45;;;27.77;;
60430;SDS011;46285;45.122;20.726;2023-03-03T02:14:36;35.88;;;24.58;;
60430;SDS011;46285;45.122;20.726;2023-03-03T02:24:38;36.33;;;22.65;;
60430;SDS011;46285;45.122;20.726;2023-03-03T02:34:49;38.45;;;25.30;;
60430;SDS011;46285;45.122;20.726;2023-03-03T02:44:50;39.63;;;24.73;;
60430;SDS011;46285;45.122;20.726;2023-03-03T02:54:53;43.38;;;26.75;;
60430;SDS011;46285;45.122;20.726;2023-03-03T03:04:54;38.80;;;24.48;;
60430;SDS011;46285;45.122;20.726;2023-03-03T03:14:57;41.70;;;24.60;;
60430;SDS011;46285;45.122;20.726;2023-03-03T03:24:59;38.28;;;27.08;;
60430;SDS011;46285;45.122;20.726;2023-03-03T03:35:00;40.83;;;30.83;;
60430;SDS011;46285;45.122;20.726;2023-03-03T03:45:02;38.60;;;24.58;;
60430;SDS011;46285;45.122;20.726;2023-03-03T03:55:06;56.17;;;43.85;;
60430;SDS011;46285;45.122;20.726;2023-03-03T04:05:08;42.00;;;26.50;;
60430;SDS011;46285;45.122;20.726;2023-03-03T04:15:11;43.15;;;30.65;;
60430;SDS011;46285;45.122;20.726;2023-03-03T04:25:14;61.95;;;51.33;;
60430;SDS011;46285;45.122;20.726;2023-03-03T04:35:16;53.95;;;39.90;;
60430;SDS011;46285;45.122;20.726;2023-03-03T04:45:18;79.97;;;57.72;;
60430;SDS011;46285;45.122;20.726;2023-03-03T04:55:20;63.03;;;42.75;;
60430;SDS011;46285;45.122;20.726;2023-03-03T05:05:22;58.15;;;36.47;;
60430;SDS011;46285;45.122;20.726;2023-03-03T05:15:23;53.92;;;35.58;;
60430;SDS011;46285;45.122;20.726;2023-03-03T05:25:24;55.58;;;39.30;;
60430;SDS011;46285;45.122;20.726;2023-03-03T05:35:25;50.60;;;34.30;;
60430;SDS011;46285;45.122;20.726;2023-03-03T05:45:26;56.88;;;37.50;;
60430;SDS011;46285;45.122;20.726;2023-03-03T05:55:27;59.55;;;38.45;;
60430;SDS011;46285;45.122;20.726;2023-03-03T06:05:28;66.57;;;40.78;;
60430;SDS011;46285;45.122;20.726;2023-03-03T06:15:30;58.70;;;38.78;;
60430;SDS011;46285;45.122;20.726;2023-03-03T06:25:31;49.55;;;30.45;;
60430;SDS011;46285;45.122;20.726;2023-03-03T06:35:32;51.97;;;32.58;;
60430;SDS011;46285;45.122;20.726;2023-03-03T06:45:33;84.38;;;46.33;;
60430;SDS011;46285;45.122;20.726;2023-03-03T06:55:34;88.82;;;49.70;;
60430;SDS011;46285;45.122;20.726;2023-03-03T07:05:37;69.32;;;36.95;;
60430;SDS011;46285;45.122;20.726;2023-03-03T07:15:38;52.65;;;30.63;;
60430;SDS011;46285;45.122;20.726;2023-03-03T07:25:41;72.93;;;50.25;;
60430;SDS011;46285;45.122;20.726;2023-03-03T07:35:43;51.78;;;33.22;;
60430;SDS011;46285;45.122;20.726;2023-03-03T07:45:44;54.47;;;35.38;;
60430;SDS011;46285;45.122;20.726;2023-03-03T07:55:45;50.72;;;32.90;;
60430;SDS011;46285;45.122;20.726;2023-03-03T08:05:47;38.53;;;26.23;;
60430;SDS011;46285;45.122;20.726;2023-03-03T08:15:49;47.20;;;28.70;;
60430;SDS011;46285;45.122;20.726;2023-03-03T08:25:52;47.15;;;30.05;;
60430;SDS011;46285;45.122;20.726;2023-03-03T08:35:53;43.55;;;26.05;;
60430;SDS011;46285;45.122;20.726;2023-03-03T08:45:56;54.83;;;31.40;;
60430;SDS011;46285;45.122;20.726;2023-03-03T08:55:58;43.05;;;27.85;;
60430;SDS011;46285;45.122;20.726;2023-03-03T09:05:59;44.22;;;29.95;;
60430;SDS011;46285;45.122;20.726;2023-03-03T09:16:00;42.67;;;27.50;;
60430;SDS011;46285;45.122;20.726;2023-03-03T09:36:28;32.92;;;22.20;;
60430;SDS011;46285;45.122;20.726;2023-03-03T09:56:55;42.00;;;26.80;;
60430;SDS011;46285;45.122;20.726;2023-03-03T10:07:12;30.42;;;20.10;;
60430;SDS011;46285;45.122;20.726;2023-03-03T11:08:13;32.78;;;22.45;;
60430;SDS011;46285;45.122;20.726;2023-03-03T11:18:20;35.22;;;22.25;;
60430;SDS011;46285;45.122;20.726;2023-03-03T11:39:07;36.85;;;23.92;;
60430;SDS011;46285;45.122;20.726;2023-03-03T11:49:14;37.00;;;25.95;;
60430;SDS011;46285;45.122;20.726;2023-03-03T12:19:27;33.55;;;21.10;;
60430;SDS011;46285;45.122;20.726;2023-03-03T12:40:25;27.87;;;19.60;;
60430;SDS011;46285;45.122;20.726;2023-03-03T13:21:13;25.85;;;16.92;;
60430;SDS011;46285;45.122;20.726;2023-03-03T13:31:25;25.95;;;17.75;;
60430;SDS011;46285;45.122;20.726;2023-03-03T13:41:48;24.23;;;14.77;;
60430;SDS011;46285;45.122;20.726;2023-03-03T14:02:09;26.55;;;18.35;;
60430;SDS011;46285;45.122;20.726;2023-03-03T14:32:37;58.85;;;39.63;;
60430;SDS011;46285;45.122;20.726;2023-03-03T14:43:01;38.65;;;25.15;;
60430;SDS011;46285;45.122;20.726;2023-03-03T14:53:06;39.78;;;25.52;;
60430;SDS011;46285;45.122;20.726;2023-03-03T15:03:42;34.17;;;22.00;;
60430;SDS011;46285;45.122;20.726;2023-03-03T15:13:36;39.53;;;26.92;;
60430;SDS011;46285;45.122;20.726;2023-03-03T15:23:39;55.03;;;34.15;;
60430;SDS011;46285;45.122;20.726;2023-03-03T16:04:23;39.35;;;26.13;;
60430;SDS011;46285;45.122;20.726;2023-03-03T16:14:34;45.33;;;30.65;;
60430;SDS011;46285;45.122;20.726;2023-03-03T16:34:41;65.00;;;38.58;;
60430;SDS011;46285;45.122;20.726;2023-03-03T16:44:59;77.37;;;49.33;;
60430;SDS011;46285;45.122;20.726;2023-03-03T16:55:08;131.25;;;80.60;;
60430;SDS011;46285;45.122;20.726;2023-03-03T17:15:27;113.57;;;66.97;;
60430;SDS011;46285;45.122;20.726;2023-03-03T17:25:40;129.38;;;79.22;;
60430;SDS011;46285;45.122;20.726;2023-03-03T17:45:55;121.78;;;81.97;;
60430;SDS011;46285;45.122;20.726;2023-03-03T18:36:36;169.18;;;100.63;;
60430;SDS011;46285;45.122;20.726;2023-03-03T18:56:44;189.35;;;114.60;;
60430;SDS011;46285;45.122;20.726;2023-03-03T19:16:49;202.27;;;124.47;;
60430;SDS011;46285;45.122;20.726;2023-03-03T19:47:09;154.55;;;93.40;;
60430;SDS011;46285;45.122;20.726;2023-03-03T19:57:18;227.70;;;131.38;;
60430;SDS011;46285;45.122;20.726;2023-03-03T20:07:25;176.35;;;99.70;;
60430;SDS011;46285;45.122;20.726;2023-03-03T20:17:30;117.25;;;70.88;;
60430;SDS011;46285;45.122;20.726;2023-03-03T20:27:57;96.03;;;60.72;;
60430;SDS011;46285;45.122;20.726;2023-03-03T20:48:29;89.40;;;61.33;;
60430;SDS011;46285;45.122;20.726;2023-03-03T21:08:39;91.70;;;53.05;;
60430;SDS011;46285;45.122;20.726;2023-03-03T21:18:40;86.35;;;48.85;;
60430;SDS011;46285;45.122;20.726;2023-03-03T21:28:57;103.07;;;58.22;;
60430;SDS011;46285;45.122;20.726;2023-03-03T21:38:58;114.05;;;61.03;;
60430;SDS011;46285;45.122;20.726;2023-03-03T21:48:59;120.18;;;61.88;;
60430;SDS011;46285;45.122;20.726;2023-03-03T21:59:00;118.28;;;61.90;;
60430;SDS011;46285;45.122;20.726;2023-03-03T22:09:02;123.07;;;68.88;;
60430;SDS011;46285;45.122;20.726;2023-03-03T22:19:04;128.75;;;74.85;;
60430;SDS011;46285;45.122;20.726;2023-03-03T22:29:08;134.32;;;68.80;;
60430;SDS011;46285;45.122;20.726;2023-03-03T22:39:09;163.45;;;81.88;;
60430;SDS011;46285;45.122;20.726;2023-03-03T22:49:10;117.57;;;65.35;;
60430;SDS011;46285;45.122;20.726;2023-03-03T22:59:11;118.13;;;61.33;;
60430;SDS011;46285;45.122;20.726;2023-03-03T23:09:12;103.88;;;58.15;;
60430;SDS011;46285;45.122;20.726;2023-03-03T23:19:13;134.98;;;73.95;;
60430;SDS011;46285;45.122;20.726;2023-03-03T23:29:14;151.70;;;82.10;;
60430;SDS011;46285;45.122;20.726;2023-03-03T23:39:15;155.35;;;83.78;;
60430;SDS011;46285;45.122;20.726;2023-03-03T23:49:17;141.13;;;71.20;;
60430;SDS011;46285;45.122;20.726;2023-03-03T23:59:19;119.72;;;65.45;;
